createdAt,value
2023-04-20T00:02:03.433Z,81.48
2023-04-20T00:12:06.706Z,81.97
2023-04-20T00:22:09.660Z,82.32
2023-04-20T00:32:12.721Z,82.64
2023-04-20T00:42:16.883Z,82.89
2023-04-20T00:52:21.797Z,83.59
2023-04-20T01:02:25.889Z,83.85
2023-04-20T01:12:29.123Z,83.63
2023-04-20T01:22:32.493Z,83.91
2023-04-20T01:32:35.994Z,83.94
2023-04-20T01:42:39.600Z,83.66
2023-04-20T01:52:42.715Z,83.53
2023-04-20T02:02:46.342Z,82.92
2023-04-20T02:12:50.606Z,81.99
2023-04-20T02:22:53.653Z,82.11
2023-04-20T02:32:56.969Z,81.73
2023-04-20T02:43:00.399Z,81.69
2023-04-20T02:53:05.208Z,81.30
2023-04-20T03:03:11.018Z,80.98
2023-04-20T03:13:14.682Z,81.55
2023-04-20T03:23:32.095Z,81.48
2023-04-20T03:33:36.108Z,81.55
2023-04-20T03:43:41.517Z,81.95
2023-04-20T03:53:45.856Z,82.83
2023-04-20T04:03:51.090Z,83.58
2023-04-20T04:13:54.673Z,83.35
2023-04-20T04:23:58.452Z,83.43
2023-04-20T04:34:15.189Z,83.57
2023-04-20T04:44:26.231Z,83.41
2023-04-20T04:54:30.017Z,83.03
2023-04-20T05:04:33.446Z,82.39
2023-04-20T05:14:36.700Z,82.17
2023-04-20T05:24:40.107Z,81.63
2023-04-20T05:34:43.322Z,81.26
2023-04-20T05:44:46.574Z,80.68
2023-04-20T05:54:49.988Z,80.51
2023-04-20T06:04:53.827Z,79.08
2023-04-20T06:15:00.626Z,77.36
2023-04-20T06:25:03.986Z,75.28
2023-04-20T06:35:08.930Z,74.09
2023-04-20T06:45:12.428Z,73.04
2023-04-20T06:55:17.469Z,72.09
2023-04-20T07:05:36.796Z,72.02
2023-04-20T07:15:40.089Z,72.26
2023-04-20T07:25:43.721Z,71.22
2023-04-20T07:35:47.287Z,70.78
2023-04-20T07:45:50.412Z,70.36
2023-04-20T07:55:53.501Z,69.59
2023-04-20T08:05:56.707Z,68.21
2023-04-20T08:16:00.284Z,68.37
2023-04-20T08:26:04.569Z,68.39
2023-04-20T08:36:07.713Z,68.27
2023-04-20T08:46:10.985Z,67.68
2023-04-20T08:56:13.980Z,68.12
2023-04-20T09:06:18.579Z,68.19
2023-04-20T09:16:21.713Z,68.06
2023-04-20T09:26:25.092Z,67.99
2023-04-20T09:36:50.517Z,67.84
2023-04-20T09:46:53.652Z,66.67
2023-04-20T09:56:59.492Z,65.08
2023-04-20T10:07:06.347Z,63.10
2023-04-20T10:17:11.593Z,62.80
2023-04-20T10:27:53.307Z,63.77
2023-04-20T10:37:56.670Z,63.71
2023-04-20T10:48:07.485Z,63.09
2023-04-20T10:58:21.398Z,63.96
2023-04-20T11:08:24.589Z,62.67
2023-04-20T11:18:27.613Z,61.40
2023-04-20T11:28:34.707Z,60.53
2023-04-20T11:38:38.132Z,59.41
2023-04-20T11:48:41.733Z,59.33
2023-04-20T11:58:44.975Z,59.93
2023-04-20T12:08:48.386Z,61.37
2023-04-20T12:19:23.206Z,61.45
2023-04-20T12:29:58.211Z,61.40
2023-04-20T12:40:01.339Z,60.04
2023-04-20T12:50:04.881Z,59.32
2023-04-20T13:00:15.266Z,58.23
2023-04-20T13:10:18.550Z,57.54
2023-04-20T13:20:21.619Z,56.50
2023-04-20T13:30:24.982Z,55.88
2023-04-20T13:40:28.368Z,55.95
2023-04-20T13:50:31.785Z,56.09
2023-04-20T14:00:35.057Z,56.06
2023-04-20T14:10:39.663Z,56.85
2023-04-20T14:20:42.939Z,57.90
2023-04-20T14:30:46.561Z,58.82
2023-04-20T14:41:21.867Z,58.46
2023-04-20T14:51:24.937Z,58.68
2023-04-20T15:01:28.183Z,57.71
2023-04-20T15:11:31.356Z,55.98
2023-04-20T15:21:34.485Z,56.82
2023-04-20T15:31:37.761Z,57.96
2023-04-20T15:41:40.876Z,59.64
2023-04-20T15:51:44.444Z,59.99
2023-04-20T16:01:47.636Z,61.14
2023-04-20T16:11:51.213Z,61.16
2023-04-20T16:21:54.266Z,62.81
2023-04-20T16:31:57.446Z,63.16
2023-04-20T16:42:00.955Z,65.03
2023-04-20T16:52:04.320Z,65.04
2023-04-20T17:02:08.013Z,65.71
2023-04-20T17:12:44.018Z,65.49
2023-04-20T17:23:19.723Z,66.26
2023-04-20T17:33:22.904Z,67.45
2023-04-20T17:43:26.165Z,67.82
2023-04-20T17:53:29.255Z,68.96
2023-04-20T18:03:32.531Z,69.82
2023-04-20T18:13:36.058Z,70.32
2023-04-20T18:23:39.663Z,70.91
2023-04-20T18:33:43.580Z,71.31
2023-04-20T18:43:47.224Z,72.25
2023-04-20T18:53:50.635Z,72.95
2023-04-20T19:03:53.915Z,73.45
2023-04-20T19:13:57.187Z,74.12
2023-04-20T19:24:00.794Z,74.84
2023-04-20T19:34:04.778Z,75.51
2023-04-20T19:44:10.565Z,75.82
2023-04-20T19:54:45.980Z,76.22
2023-04-20T20:04:49.821Z,76.68
2023-04-20T20:14:53.528Z,77.28
2023-04-20T20:24:57.407Z,78.15
2023-04-20T20:35:00.842Z,79.30
2023-04-20T20:45:07.341Z,79.96
2023-04-20T20:55:11.105Z,79.70
2023-04-20T21:05:14.267Z,79.50
2023-04-20T21:15:18.065Z,79.16
2023-04-20T21:25:21.321Z,79.96
2023-04-20T21:35:25.075Z,80.08
2023-04-20T21:45:28.312Z,79.88
2023-04-20T21:55:33.916Z,80.18
2023-04-20T22:05:37.009Z,80.81
2023-04-20T22:15:40.345Z,81.41
2023-04-20T22:25:43.837Z,81.90
2023-04-20T22:35:47.741Z,81.66
2023-04-20T22:45:54.612Z,81.76
2023-04-20T22:56:08.403Z,81.63
2023-04-20T23:06:12.870Z,81.90
2023-04-20T23:16:16.680Z,82.05
2023-04-20T23:26:19.806Z,82.24
2023-04-20T23:36:22.822Z,82.76
2023-04-20T23:46:26.821Z,83.83
2023-04-20T23:56:29.850Z,83.65
